Time;durP1;ratioP1;P1;durP2;ratioP2;P2;SDS_P1;SDS_P2;PMS_P1;PMS_P2;Temp;Humidity;BMP_temperature;BMP_pressure;BME280_temperature;BME280_humidity;BME280_pressure;Samples;Min_cycle;Max_cycle;Signal;HPM_P1;HPM_P2
2023/05/08 00:10:36;;;;;;;7.15;5.00;;;;;;;3.54;68.67;101302.03;30868686;28;97249;-76
2023/05/08 00:25:36;;;;;;;8.00;5.03;;;;;;;3.38;69.55;101312.72;30866267;28;110138;-76
2023/05/08 00:40:36;;;;;;;10.48;5.47;;;;;;;3.15;70.21;101307.06;30864562;28;102596;-76
2023/05/08 00:55:37;;;;;;;9.15;5.95;;;;;;;2.96;70.56;101302.09;30863699;28;96771;-76
2023/05/08 01:10:48;;;;;;;10.00;7.13;;;;;;;2.76;71.04;101312.97;30862898;28;96779;-76
2023/05/08 01:26:23;;;;;;;10.43;7.45;;;;;;;2.60;72.32;101316.53;30861411;28;97269;-77
2023/05/08 01:41:30;;;;;;;10.23;6.77;;;;;;;2.46;72.83;101319.13;30858484;28;96617;-76
2023/05/08 01:56:32;;;;;;;10.40;6.95;;;;;;;2.28;73.21;101321.88;30858098;28;96807;-77
2023/05/08 02:11:34;;;;;;;11.27;6.40;;;;;;;2.08;73.55;101327.44;30857126;28;97016;-76
2023/05/08 02:26:38;;;;;;;14.77;6.35;;;;;;;1.90;74.18;101338.06;30856432;28;96649;-75
2023/05/08 02:41:40;;;;;;;10.52;5.80;;;;;;;1.71;74.21;101346.13;30854348;28;96721;-75
2023/05/08 02:56:54;;;;;;;10.25;6.82;;;;;;;1.58;74.75;101368.75;30860756;28;96667;-74
2023/05/08 03:12:01;;;;;;;10.03;6.80;;;;;;;1.50;75.25;101361.25;30873447;28;96737;-76
2023/05/08 03:27:02;;;;;;;11.07;6.63;;;;;;;1.46;75.69;101365.84;30871444;28;96681;-76
2023/05/08 03:42:03;;;;;;;14.85;6.55;;;;;;;1.55;75.71;101368.91;30870579;28;97364;-75
2023/05/08 03:57:03;;;;;;;10.27;6.35;;;;;;;1.74;76.02;101366.97;30848523;28;99210;-68
2023/05/08 04:12:17;;;;;;;8.38;6.18;;;;;;;2.08;76.31;101382.63;30785958;28;97987;-73
2023/05/08 04:27:18;;;;;;;13.83;5.67;;;;;;;2.43;76.81;101392.94;30752381;28;97007;-73
2023/05/08 04:42:19;;;;;;;8.18;5.40;;;;;;;2.80;76.76;101418.00;30864985;28;96792;-74
2023/05/08 04:57:19;;;;;;;8.13;4.85;;;;;;;3.33;77.02;101433.31;30865708;28;97505;-74
2023/05/08 05:12:19;;;;;;;12.02;6.20;;;;;;;3.92;76.53;101446.38;30858971;28;103448;-67
2023/05/08 05:27:20;;;;;;;6.85;4.68;;;;;;;4.68;75.93;101452.94;30844161;28;97036;-66
2023/05/08 05:42:22;;;;;;;8.85;5.10;;;;;;;5.46;75.57;101458.38;30857725;28;97323;-64
2023/05/08 05:57:22;;;;;;;6.97;4.85;;;;;;;6.08;74.33;101457.56;30863938;28;97045;-66
2023/05/08 06:12:22;;;;;;;8.52;4.32;;;;;;;6.75;72.41;101459.75;30856158;28;98174;-62
2023/05/08 06:27:23;;;;;;;6.10;4.25;;;;;;;7.45;72.13;101463.31;30849463;28;96599;-63
2023/05/08 06:42:23;;;;;;;6.20;3.80;;;;;;;7.95;69.47;101470.06;30859525;28;97406;-62
2023/05/08 06:57:25;;;;;;;7.20;3.55;;;;;;;8.73;67.26;101486.00;30861863;28;96770;-65
2023/05/08 07:12:26;;;;;;;4.63;3.23;;;;;;;9.41;65.69;101490.97;30872948;28;96835;-65
2023/05/08 07:27:26;;;;;;;3.92;2.60;;;;;;;9.79;62.78;101505.47;30850927;28;96907;-67
2023/05/08 07:42:27;;;;;;;2.70;1.75;;;;;;;10.07;59.90;101492.41;30865528;28;97461;-64
2023/05/08 07:57:35;;;;;;;5.78;3.83;;;;;;;10.64;59.50;101487.38;30880303;28;97044;-65
2023/05/08 08:12:36;;;;;;;7.57;3.40;;;;;;;11.94;56.83;101489.56;30873646;28;97317;-63
2023/05/08 08:27:36;;;;;;;5.40;3.03;;;;;;;12.90;53.31;101490.09;30850952;28;97617;-68
2023/05/08 08:42:36;;;;;;;8.05;3.80;;;;;;;13.70;51.91;101474.78;30880858;28;96708;-72
2023/05/08 08:57:47;;;;;;;8.52;4.65;;;;;;;14.35;48.98;101476.06;30879812;28;97020;-69
2023/05/08 09:12:47;;;;;;;5.10;3.10;;;;;;;15.47;45.42;101462.16;30867838;28;96787;-68
2023/05/08 09:27:47;;;;;;;4.80;3.15;;;;;;;16.14;41.54;101458.25;30858519;28;97479;-69
2023/05/08 09:42:49;;;;;;;5.32;3.20;;;;;;;17.48;39.43;101473.22;30855890;28;104977;-67
2023/05/08 09:57:57;;;;;;;5.07;3.17;;;;;;;16.99;37.32;101470.00;30856884;28;97372;-64
2023/05/08 10:12:58;;;;;;;4.40;3.03;;;;;;;17.00;36.75;101460.06;30861614;28;96610;-68
2023/05/08 10:27:58;;;;;;;3.45;2.45;;;;;;;17.53;35.47;101451.97;30854537;28;110601;-68
2023/05/08 10:42:59;;;;;;;4.03;2.97;;;;;;;17.69;34.77;101429.41;30854906;28;97745;-68
2023/05/08 10:58:27;;;;;;;5.83;3.07;;;;;;;18.01;33.15;101430.03;30847712;28;97878;-68
2023/05/08 11:13:32;;;;;;;5.77;2.53;;;;;;;19.17;31.94;101419.09;30851045;28;96658;-69
2023/05/08 11:28:36;;;;;;;4.17;2.40;;;;;;;19.30;31.16;101417.50;30871844;28;96788;-68
2023/05/08 11:44:04;;;;;;;2.93;1.97;;;;;;;18.89;31.26;101409.13;30872725;28;96850;-67
2023/05/08 11:59:07;;;;;;;4.57;1.97;;;;;;;18.89;30.23;101411.84;30856649;28;97563;-70
2023/05/08 12:14:09;;;;;;;4.77;2.70;;;;;;;18.20;31.33;101397.03;30862809;28;97065;-68
2023/05/08 12:29:09;;;;;;;5.57;2.27;;;;;;;17.88;31.07;101398.34;30861792;28;97211;-70
2023/05/08 12:44:23;;;;;;;5.82;2.50;;;;;;;16.98;32.39;101386.75;30860950;28;97479;-70
2023/05/08 12:59:32;;;;;;;5.93;2.40;;;;;;;16.90;32.83;101372.31;30857352;28;97523;-67
2023/05/08 13:14:32;;;;;;;4.77;2.30;;;;;;;16.98;33.28;101357.13;30856503;28;97244;-70
2023/05/08 13:29:33;;;;;;;3.75;2.45;;;;;;;17.32;33.33;101344.94;30856522;28;96754;-70
2023/05/08 13:44:33;;;;;;;5.07;2.35;;;;;;;16.48;34.00;101329.81;30854549;28;100129;-67
2023/05/08 13:59:34;;;;;;;3.03;2.05;;;;;;;16.33;34.02;101324.38;30854225;28;107787;-70
2023/05/08 14:14:34;;;;;;;3.88;2.25;;;;;;;15.92;35.03;101311.25;30852077;28;96799;-69
2023/05/08 14:29:35;;;;;;;3.10;2.20;;;;;;;15.54;35.10;101310.09;30851978;28;111536;-70
2023/05/08 14:44:35;;;;;;;3.97;2.13;;;;;;;15.33;35.62;101299.94;30850543;28;97534;-70
2023/05/08 14:59:36;;;;;;;4.63;1.90;;;;;;;15.01;35.57;101306.28;30868533;28;102445;-65
2023/05/08 15:14:36;;;;;;;7.72;2.17;;;;;;;14.76;35.40;101300.13;30871781;28;98505;-68
2023/05/08 15:29:38;;;;;;;3.10;1.92;;;;;;;14.60;35.65;101296.44;30869399;28;109824;-70
2023/05/08 15:44:38;;;;;;;4.60;2.30;;;;;;;14.41;35.68;101278.88;30867670;28;96800;-65
2023/05/08 15:59:39;;;;;;;3.17;2.05;;;;;;;14.35;35.89;101283.06;30864053;28;107568;-69
2023/05/08 16:14:39;;;;;;;7.00;1.65;;;;;;;14.16;36.43;101261.94;30864372;28;97533;-68
2023/05/08 16:29:39;;;;;;;4.60;2.38;;;;;;;14.00;36.32;101263.63;30860496;28;96728;-69
2023/05/08 16:44:40;;;;;;;3.55;2.10;;;;;;;13.75;36.74;101267.25;30792819;28;96869;-69
2023/05/08 16:59:41;;;;;;;2.28;1.63;;;;;;;13.44;37.39;101273.22;30728458;28;97068;-64
2023/05/08 17:14:41;;;;;;;3.20;2.00;;;;;;;13.16;38.08;101281.44;30844708;28;97120;-73
2023/05/08 17:29:41;;;;;;;2.90;2.13;;;;;;;12.79;38.61;101274.56;30845174;28;97124;-68
2023/05/08 17:44:42;;;;;;;4.05;2.50;;;;;;;12.36;39.89;101285.16;30884711;28;108823;-70
2023/05/08 17:59:42;;;;;;;3.03;2.10;;;;;;;11.92;40.46;101299.25;30964021;28;100428;-75
2023/05/08 18:14:43;;;;;;;4.78;1.98;;;;;;;11.37;41.61;101312.66;30963130;28;97047;-71
2023/05/08 18:29:44;;;;;;;5.03;2.77;;;;;;;10.89;42.94;101315.34;30867904;28;97479;-70
2023/05/08 18:44:44;;;;;;;6.18;2.67;;;;;;;10.43;44.06;101332.97;30841383;28;100024;-71
2023/05/08 18:59:44;;;;;;;5.97;2.72;;;;;;;9.94;46.13;101351.56;30840836;28;97134;-66
2023/05/08 19:14:47;;;;;;;6.97;2.70;;;;;;;9.52;46.37;101354.41;30837909;28;97298;-67
2023/05/08 19:29:48;;;;;;;6.30;3.13;;;;;;;9.12;47.35;101362.19;30838441;28;97757;-66
2023/05/08 19:44:48;;;;;;;10.20;3.10;;;;;;;8.88;48.44;101361.63;30919725;28;97236;-70
2023/05/08 19:59:49;;;;;;;8.23;3.13;;;;;;;8.58;49.58;101363.25;30980917;28;97052;-68
2023/05/08 20:14:49;;;;;;;8.55;3.78;;;;;;;8.21;50.33;101355.66;30990040;28;97261;-67
2023/05/08 20:29:50;;;;;;;10.23;3.30;;;;;;;7.89;50.80;101354.66;30987812;28;108995;-73
2023/05/08 20:44:50;;;;;;;9.10;3.58;;;;;;;7.59;52.03;101357.97;30987708;28;97385;-68
2023/05/08 20:59:50;;;;;;;8.00;3.13;;;;;;;7.33;52.80;101352.91;30987471;28;98917;-70
2023/05/08 21:14:51;;;;;;;7.47;3.58;;;;;;;7.11;53.37;101346.63;30984750;28;98846;-68
2023/05/08 21:29:51;;;;;;;7.53;3.63;;;;;;;6.86;54.21;101329.16;30984497;28;96946;-65
2023/05/08 21:44:55;;;;;;;5.72;3.70;;;;;;;6.60;55.32;101334.63;30983384;28;96679;-65
2023/05/08 21:59:56;;;;;;;12.33;4.03;;;;;;;6.37;55.50;101330.22;30981781;28;96783;-69
2023/05/08 22:14:56;;;;;;;8.60;4.15;;;;;;;6.08;56.33;101328.78;30979928;28;96855;-72
2023/05/08 22:29:59;;;;;;;12.07;4.72;;;;;;;5.95;57.60;101312.09;30979141;28;103192;-65
2023/05/08 22:45:00;;;;;;;9.32;4.60;;;;;;;5.81;57.26;101293.72;30978189;28;97336;-73
2023/05/08 23:00:00;;;;;;;9.25;5.43;;;;;;;5.58;57.82;101301.56;30976854;28;97138;-73
2023/05/08 23:15:01;;;;;;;9.27;5.50;;;;;;;5.40;58.94;101293.16;30986537;28;96677;-67
2023/05/08 23:30:02;;;;;;;8.38;5.25;;;;;;;5.19;59.46;101288.41;30996816;28;96937;-73
2023/05/08 23:45:02;;;;;;;9.77;5.18;;;;;;;5.00;60.01;101282.75;30995236;28;97379;-72
